Airfield :
LOGIN :

Register | Disclaimer

   EN    FR    IT 

 










Legend :    VFR   Marginal VFR   IFR   Intensive IFR   Very Intensive IFR
Visi :
Ceiling :
>= 8 km
>= 3000ft
5 to 8 km
1000 to 3000 ft
1500m to 5 km
500 to 1000 ft
800 to 1500m
200 to 500 ft
< 800m
< 200 ft
Symbols :   Thunderstorms  Fog  Heavy snow  Heavy precipitations  Wind > 20 kt
SIGMETs :     Misc.  Thunderstorms  Icing  Turbulence  Mountain Waves  Volcanic Ashes







- Airport Elevation : 239 ft
- IATA code : VRN


LIPX - Villafranca Int. Verona

CURRENT METAR :
  • 260150Z 34005KT 8000 BKN060 12/12 Q1017

EXPIRED METARs :
  • 260120Z 20003KT 140V240 8000 BKN060 12/12 Q1017 RERA
  • 260050Z 21005KT 8000 RA BKN060 12/12 Q1018

TAF TAF LIPX
Valid from the 26 at 03:00 until the 26 at 12:00 UTC


260200Z 2603/2612 VRB05KT 8000 SCT030 BKN070
TEMPO 2603/2607 RA
No reported NOTAMs for that airfield.
3 SIGMETs reported for the Milano FIR (LIMM) :
 
Embedded thunderstorms
LIMM SIGMET 6 VALID 252315/260315 LIMM- LIMM MILANO FIR EMBD TS FCST WI N4428 E01319 - N4447 E01144 - N4428 E01131 - N4333 E01349 - N4331 E01433 - N4428 E01319 STNR NC=
Embedded thunderstorms
LIMM SIGMET 5 VALID 252315/260315 LIMM- LIMM MILANO FIR EMBD TS OBS WI N4557 E00800 - N4535 E00827 - N4540 E00906 - N4607 E00925 - N4614 E00916 - N4554 E00903 - N4605 E00850 - N4615 E00830 - N4625 E00826 - N4616 E00810 - N4557 E00800 CB TOP AT FL270 STNR NC=
Embedded thunderstorms
LIMM SIGMET 1 VALID 260315/260715 LIMM- LIMM MILANO FIR EMBD TS FCST WI N4428 E01319 - N4516 E01256 - N4447 E01230 - N4455 E01048 - N4426 E01126 - N4400 E01230 - N4333 E01349 - N4331 E01433 - N4428 E01319 MOV E WKN=



MET'MAP, your aeronautical weather chart ! - Copyright ORBIFLY December 2007 - Disclaimer

ORBIFLY MET'MAP TEAM :

Programming & Development : Alexandra Zaïnal
Concept & Development : Baudouin d'Aumeries
Co-Development & Prog : Marc-Olivier Méhu
Technical & hardware support : Manuel Goepfert

Contact : metmap@orbifly.com




SOURCES & CREDITS :

   NOAA